Time;durP1;ratioP1;P1;durP2;ratioP2;P2;SDS_P1;SDS_P2;PMS_P1;PMS_P2;Temp;Humidity;BMP_temperature;BMP_pressure;BME280_temperature;BME280_humidity;BME280_pressure;Samples;Min_cycle;Max_cycle;Signal;HPM_P1;HPM_P2
2021/10/01 00:00:42;;;;;;;44.40;20.57;;;;;;;7.38;100.00;101602.09;714060;1177;114064;-79
2021/10/01 00:15:45;;;;;;;45.47;20.70;;;;;;;7.28;100.00;101601.72;714049;1178;114949;-80
2021/10/01 00:30:47;;;;;;;45.03;19.60;;;;;;;7.19;100.00;101603.98;714077;1201;113972;-80
2021/10/01 00:45:49;;;;;;;51.33;23.70;;;;;;;6.99;100.00;101588.47;714035;1203;113793;-80
2021/10/01 01:16:11;;;;;;;44.90;22.00;;;;;;;6.70;100.00;101579.52;713945;1177;113881;-79
2021/10/01 01:31:27;;;;;;;43.93;21.40;;;;;;;6.48;100.00;101592.81;713856;1202;115548;-79
2021/10/01 01:46:30;;;;;;;38.03;18.40;;;;;;;6.42;100.00;101599.16;714008;1179;114261;-78
2021/10/01 02:01:33;;;;;;;38.83;19.60;;;;;;;6.35;100.00;101609.95;713995;1202;114719;-80
2021/10/01 02:16:35;;;;;;;27.03;14.25;;;;;;;5.95;100.00;101613.56;714416;1174;115449;-79
2021/10/01 02:31:45;;;;;;;29.03;14.00;;;;;;;5.88;100.00;101591.31;714139;1202;114442;-79
2021/10/01 02:46:47;;;;;;;45.73;20.08;;;;;;;5.73;100.00;101595.49;714136;1205;114451;-79
2021/10/01 03:01:51;;;;;;;50.80;21.37;;;;;;;5.79;100.00;101590.00;714030;1176;114817;-79
2021/10/01 03:16:55;;;;;;;48.23;21.80;;;;;;;5.59;100.00;101574.46;714086;1188;114995;-81
2021/10/01 03:31:58;;;;;;;45.18;19.13;;;;;;;5.38;100.00;101587.53;714146;1201;115276;-79
2021/10/01 03:47:00;;;;;;;31.23;16.35;;;;;;;5.28;100.00;101586.29;714102;1179;114379;-78
2021/10/01 04:02:02;;;;;;;45.30;18.63;;;;;;;5.22;100.00;101584.78;714090;1203;114822;-78
2021/10/01 04:17:05;;;;;;;53.65;22.60;;;;;;;5.10;100.00;101575.77;714180;1205;114067;-79
2021/10/01 04:32:07;;;;;;;94.83;31.20;;;;;;;4.93;100.00;101580.88;714139;1176;114325;-77
2021/10/01 04:47:10;;;;;;;72.83;30.23;;;;;;;4.82;100.00;101583.95;714089;1201;114349;-77
2021/10/01 05:02:12;;;;;;;45.93;22.35;;;;;;;4.86;100.00;101590.70;714752;1205;115835;-83
2021/10/01 05:17:14;;;;;;;68.60;29.18;;;;;;;4.93;100.00;101591.28;714135;1200;115827;-82
2021/10/01 05:32:16;;;;;;;49.40;24.23;;;;;;;5.06;100.00;101597.63;713918;1202;114339;-80
2021/10/01 05:47:19;;;;;;;124.80;45.97;;;;;;;5.28;100.00;101607.94;714017;1189;113867;-80
2021/10/01 06:02:22;;;;;;;87.25;39.90;;;;;;;5.75;100.00;101606.66;714315;1202;115030;-79
2021/10/01 06:17:24;;;;;;;55.83;28.73;;;;;;;6.70;100.00;101602.98;714342;1200;114957;-81
2021/10/01 06:32:32;;;;;;;69.43;34.47;;;;;;;8.47;100.00;101610.88;715374;1204;115035;-74
2021/10/01 06:47:48;;;;;;;76.03;43.07;;;;;;;10.25;100.00;101618.28;714665;1195;115415;-75
2021/10/01 08:19:37;;;;;;;24.78;12.10;;;;;;;16.62;86.63;101625.64;715797;1202;115469;-80
2021/10/01 08:34:42;;;;;;;9.35;5.98;;;;;;;17.13;78.17;101626.23;717222;1202;114232;-81
2021/10/01 08:49:50;;;;;;;6.23;2.83;;;;;;;17.26;75.32;101613.47;717805;1202;115407;-80
2021/10/01 09:04:55;;;;;;;16.55;4.58;;;;;;;18.15;71.57;101615.59;717118;1203;114437;-80
2021/10/01 09:19:58;;;;;;;5.47;2.83;;;;;;;18.24;70.53;101601.39;715410;1201;114659;-80
2021/10/01 09:35:10;;;;;;;5.03;2.63;;;;;;;18.90;68.13;101591.22;714707;1203;114925;-75
2021/10/01 09:50:30;;;;;;;4.53;2.20;;;;;;;18.62;64.18;101583.37;714930;1194;113736;-75
2021/10/01 10:06:02;;;;;;;9.78;3.08;;;;;;;19.11;62.56;101581.00;724007;1177;112778;-85
2021/10/01 10:21:05;;;;;;;4.50;2.35;;;;;;;19.71;61.77;101573.02;728813;1200;114977;-85
2021/10/01 10:36:26;;;;;;;5.48;2.60;;;;;;;20.77;60.37;101564.16;715580;1202;114150;-75
2021/10/01 10:52:09;;;;;;;11.83;4.48;;;;;;;20.99;57.46;101551.07;715213;1202;115165;-87
2021/10/01 11:07:44;;;;;;;6.23;2.33;;;;;;;21.51;54.62;101543.45;717349;1200;113850;-87
2021/10/01 11:22:46;;;;;;;4.65;1.75;;;;;;;21.75;54.04;101527.30;718343;1200;113189;-86
2021/10/01 11:37:50;;;;;;;5.88;1.95;;;;;;;21.31;51.84;101519.88;716827;1203;113856;-84
2021/10/01 11:52:58;;;;;;;5.95;2.20;;;;;;;21.59;50.65;101492.69;718133;1200;113681;-86
2021/10/01 12:08:11;;;;;;;11.80;8.50;;;;;;;21.53;50.59;101477.38;714141;1202;114934;-83
2021/10/01 12:23:32;;;;;;;10.08;2.73;;;;;;;21.15;49.60;101462.13;716633;1202;115071;-82
2021/10/01 12:38:34;;;;;;;3.17;1.60;;;;;;;22.36;49.90;101440.89;714757;1181;113969;-82
2021/10/01 12:53:37;;;;;;;5.47;1.80;;;;;;;22.58;48.21;101419.56;714834;1203;113961;-83
2021/10/01 13:08:40;;;;;;;6.40;1.80;;;;;;;22.30;47.97;101409.52;714501;1202;113795;-80
2021/10/01 13:23:56;;;;;;;2.47;1.70;;;;;;;23.16;47.56;101397.38;714732;1202;114275;-80
2021/10/01 13:38:59;;;;;;;7.05;3.75;;;;;;;33.08;42.35;101388.84;714432;1178;113908;-83
2021/10/01 13:54:01;;;;;;;7.80;1.70;;;;;;;28.83;41.86;101367.61;714726;1200;113882;-83
2021/10/01 14:09:03;;;;;;;4.40;3.63;;;;;;;29.00;41.62;101362.37;714792;1200;114358;-83
2021/10/01 14:24:25;;;;;;;12.18;4.50;;;;;;;26.86;40.56;101346.72;714714;1201;114970;-82
2021/10/01 14:39:28;;;;;;;6.08;3.60;;;;;;;27.96;43.37;101339.88;715214;1203;114108;-81
2021/10/01 14:54:30;;;;;;;10.90;5.48;;;;;;;27.87;41.96;101330.44;715130;1205;114837;-81
2021/10/01 15:09:32;;;;;;;66.90;51.13;;;;;;;21.75;45.15;101321.68;714892;1200;115059;-83
2021/10/01 15:24:34;;;;;;;75.00;50.17;;;;;;;19.85;49.11;101315.97;714861;1202;113662;-79
2021/10/01 15:39:37;;;;;;;324.58;160.75;;;;;;;19.01;51.75;101308.27;715590;1202;115407;-82
2021/10/01 15:54:39;;;;;;;85.00;44.90;;;;;;;17.82;54.24;101302.09;715593;1200;115818;-84
2021/10/01 16:09:41;;;;;;;46.38;23.73;;;;;;;16.81;56.15;101301.48;714524;1201;114190;-79
2021/10/01 16:24:52;;;;;;;38.87;17.77;;;;;;;15.85;58.12;101315.97;714242;1203;114130;-82
2021/10/01 16:39:55;;;;;;;17.38;12.75;;;;;;;15.01;60.56;101317.47;713400;1201;115067;-81
2021/10/01 16:54:57;;;;;;;78.43;68.93;;;;;;;14.46;62.54;101310.86;715285;1200;114815;-84
2021/10/01 17:10:00;;;;;;;27.75;16.93;;;;;;;13.93;64.46;101313.73;716675;1204;114302;-83
2021/10/01 17:25:03;;;;;;;20.68;15.63;;;;;;;13.46;66.30;101306.25;715863;1200;114435;-80
2021/10/01 17:40:07;;;;;;;24.70;17.45;;;;;;;13.11;68.14;101294.20;714715;1200;114753;-81
2021/10/01 17:55:10;;;;;;;40.35;21.68;;;;;;;13.05;69.54;101289.44;714375;1200;114472;-82
2021/10/01 18:10:19;;;;;;;97.35;36.00;;;;;;;12.87;71.94;101276.83;714557;1205;114135;-78
2021/10/01 18:25:21;;;;;;;27.73;17.28;;;;;;;12.68;73.37;101277.48;714433;1177;114536;-77
2021/10/01 18:40:24;;;;;;;18.40;10.78;;;;;;;12.25;75.49;101275.70;714710;1200;114319;-77
2021/10/01 18:55:27;;;;;;;22.88;10.85;;;;;;;11.90;77.86;101266.94;715058;1177;114247;-77
2021/10/01 19:10:29;;;;;;;15.48;9.73;;;;;;;11.77;79.65;101260.97;714382;1205;115022;-78
2021/10/01 19:25:56;;;;;;;15.55;9.13;;;;;;;11.61;81.27;101248.19;714934;1177;113767;-77
2021/10/01 19:40:57;;;;;;;24.40;13.30;;;;;;;11.39;83.48;101246.36;714455;1204;114853;-77
2021/10/01 19:56:00;;;;;;;19.35;10.55;;;;;;;11.22;84.16;101229.28;715854;1200;114176;-78
2021/10/01 20:11:05;;;;;;;14.40;9.73;;;;;;;11.04;85.79;101229.70;715155;1178;113995;-77
2021/10/01 20:56:58;;;;;;;24.50;12.90;;;;;;;10.52;94.66;101175.83;715343;1201;114383;-78
2021/10/01 21:43:09;;;;;;;19.70;12.30;;;;;;;10.33;97.46;101150.92;715024;1179;114594;-78
2021/10/01 21:58:12;;;;;;;19.53;13.05;;;;;;;10.22;98.15;101135.16;714327;1204;114834;-78
2021/10/01 22:13:43;;;;;;;19.45;12.65;;;;;;;10.05;98.01;101129.34;714105;1177;114124;-79
2021/10/01 22:28:44;;;;;;;19.05;12.93;;;;;;;9.90;100.00;101114.73;714222;1205;113854;-78
2021/10/01 22:43:51;;;;;;;21.03;12.23;;;;;;;9.79;100.00;101098.00;714626;1200;115059;-80
2021/10/01 22:58:54;;;;;;;20.95;13.05;;;;;;;9.72;100.00;101090.69;714707;1200;113945;-78
